sensor_id;sensor_type;location;lat;lon;timestamp;P1;durP1;ratioP1;P2;durP2;ratioP2
64335;SDS011;50672;53.362;-6.240;2022-08-14T00:01:00;6.15;;;4.72;;
64335;SDS011;50672;53.362;-6.240;2022-08-14T00:03:35;6.57;;;4.97;;
64335;SDS011;50672;53.362;-6.240;2022-08-14T00:06:06;8.93;;;5.27;;
64335;SDS011;50672;53.362;-6.240;2022-08-14T00:08:52;5.93;;;5.17;;
64335;SDS011;50672;53.362;-6.240;2022-08-14T00:11:25;6.32;;;4.35;;
64335;SDS011;50672;53.362;-6.240;2022-08-14T00:13:57;7.83;;;5.77;;
64335;SDS011;50672;53.362;-6.240;2022-08-14T00:16:27;8.27;;;5.17;;
64335;SDS011;50672;53.362;-6.240;2022-08-14T00:21:50;6.40;;;5.07;;
64335;SDS011;50672;53.362;-6.240;2022-08-14T00:24:18;7.63;;;4.83;;
64335;SDS011;50672;53.362;-6.240;2022-08-14T00:26:54;8.33;;;4.90;;
64335;SDS011;50672;53.362;-6.240;2022-08-14T00:29:28;4.90;;;4.17;;
64335;SDS011;50672;53.362;-6.240;2022-08-14T00:31:58;7.87;;;5.33;;
64335;SDS011;50672;53.362;-6.240;2022-08-14T00:34:25;6.33;;;4.67;;
64335;SDS011;50672;53.362;-6.240;2022-08-14T00:37:11;5.70;;;4.80;;
64335;SDS011;50672;53.362;-6.240;2022-08-14T00:39:39;6.20;;;4.53;;
64335;SDS011;50672;53.362;-6.240;2022-08-14T00:42:07;8.47;;;4.57;;
64335;SDS011;50672;53.362;-6.240;2022-08-14T00:44:54;7.37;;;5.00;;
64335;SDS011;50672;53.362;-6.240;2022-08-14T00:47:23;8.07;;;5.03;;
64335;SDS011;50672;53.362;-6.240;2022-08-14T00:49:52;5.47;;;4.23;;
64335;SDS011;50672;53.362;-6.240;2022-08-14T00:52:22;4.77;;;4.03;;
64335;SDS011;50672;53.362;-6.240;2022-08-14T00:54:52;6.33;;;4.43;;
64335;SDS011;50672;53.362;-6.240;2022-08-14T00:57:28;5.28;;;4.35;;
64335;SDS011;50672;53.362;-6.240;2022-08-14T00:59:58;6.77;;;4.57;;
64335;SDS011;50672;53.362;-6.240;2022-08-14T01:02:26;9.00;;;4.60;;
64335;SDS011;50672;53.362;-6.240;2022-08-14T01:04:57;4.50;;;4.10;;
64335;SDS011;50672;53.362;-6.240;2022-08-14T01:07:27;7.80;;;4.53;;
64335;SDS011;50672;53.362;-6.240;2022-08-14T01:10:15;5.37;;;4.63;;
64335;SDS011;50672;53.362;-6.240;2022-08-14T01:12:43;8.80;;;4.43;;
64335;SDS011;50672;53.362;-6.240;2022-08-14T01:15:13;8.00;;;5.07;;
64335;SDS011;50672;53.362;-6.240;2022-08-14T01:17:42;9.67;;;5.50;;
64335;SDS011;50672;53.362;-6.240;2022-08-14T01:20:29;4.60;;;3.83;;
64335;SDS011;50672;53.362;-6.240;2022-08-14T01:23:15;11.00;;;5.27;;
64335;SDS011;50672;53.362;-6.240;2022-08-14T01:25:47;6.70;;;4.47;;
64335;SDS011;50672;53.362;-6.240;2022-08-14T01:28:16;11.27;;;4.27;;
64335;SDS011;50672;53.362;-6.240;2022-08-14T01:31:09;5.20;;;3.80;;
64335;SDS011;50672;53.362;-6.240;2022-08-14T01:33:39;6.70;;;4.60;;
64335;SDS011;50672;53.362;-6.240;2022-08-14T01:36:31;6.35;;;4.35;;
64335;SDS011;50672;53.362;-6.240;2022-08-14T01:39:04;6.60;;;4.47;;
64335;SDS011;50672;53.362;-6.240;2022-08-14T01:41:38;8.83;;;4.53;;
64335;SDS011;50672;53.362;-6.240;2022-08-14T01:44:08;7.23;;;4.10;;
64335;SDS011;50672;53.362;-6.240;2022-08-14T01:46:59;5.95;;;4.15;;
64335;SDS011;50672;53.362;-6.240;2022-08-14T01:49:47;6.67;;;4.10;;
64335;SDS011;50672;53.362;-6.240;2022-08-14T01:52:31;6.60;;;4.27;;
64335;SDS011;50672;53.362;-6.240;2022-08-14T01:55:21;5.57;;;4.23;;
64335;SDS011;50672;53.362;-6.240;2022-08-14T01:57:53;9.82;;;4.80;;
64335;SDS011;50672;53.362;-6.240;2022-08-14T02:00:40;6.83;;;4.23;;
64335;SDS011;50672;53.362;-6.240;2022-08-14T02:03:07;7.77;;;4.43;;
64335;SDS011;50672;53.362;-6.240;2022-08-14T02:05:34;8.63;;;5.40;;
64335;SDS011;50672;53.362;-6.240;2022-08-14T02:08:04;7.47;;;4.53;;
64335;SDS011;50672;53.362;-6.240;2022-08-14T02:10:36;7.68;;;4.45;;
64335;SDS011;50672;53.362;-6.240;2022-08-14T02:13:13;7.73;;;4.40;;
64335;SDS011;50672;53.362;-6.240;2022-08-14T02:15:42;7.20;;;4.57;;
64335;SDS011;50672;53.362;-6.240;2022-08-14T02:18:09;6.40;;;4.53;;
64335;SDS011;50672;53.362;-6.240;2022-08-14T02:20:40;5.97;;;4.20;;
64335;SDS011;50672;53.362;-6.240;2022-08-14T02:23:07;8.20;;;5.00;;
64335;SDS011;50672;53.362;-6.240;2022-08-14T02:25:34;6.10;;;4.60;;
64335;SDS011;50672;53.362;-6.240;2022-08-14T02:28:04;6.00;;;4.53;;
64335;SDS011;50672;53.362;-6.240;2022-08-14T02:30:51;8.47;;;5.47;;
64335;SDS011;50672;53.362;-6.240;2022-08-14T02:33:19;8.70;;;5.10;;
64335;SDS011;50672;53.362;-6.240;2022-08-14T02:35:47;6.77;;;4.70;;
64335;SDS011;50672;53.362;-6.240;2022-08-14T02:38:23;9.13;;;5.23;;
64335;SDS011;50672;53.362;-6.240;2022-08-14T02:40:59;6.63;;;4.80;;
64335;SDS011;50672;53.362;-6.240;2022-08-14T02:43:26;6.53;;;4.90;;
64335;SDS011;50672;53.362;-6.240;2022-08-14T02:46:13;6.77;;;4.47;;
64335;SDS011;50672;53.362;-6.240;2022-08-14T02:48:52;10.30;;;5.50;;
64335;SDS011;50672;53.362;-6.240;2022-08-14T02:51:31;7.23;;;4.77;;
64335;SDS011;50672;53.362;-6.240;2022-08-14T02:53:59;7.70;;;5.90;;
64335;SDS011;50672;53.362;-6.240;2022-08-14T02:56:29;7.13;;;5.27;;
64335;SDS011;50672;53.362;-6.240;2022-08-14T02:59:16;7.00;;;5.40;;
64335;SDS011;50672;53.362;-6.240;2022-08-14T03:01:46;5.93;;;5.10;;
64335;SDS011;50672;53.362;-6.240;2022-08-14T03:04:20;8.60;;;4.63;;
64335;SDS011;50672;53.362;-6.240;2022-08-14T03:06:47;7.13;;;5.33;;
64335;SDS011;50672;53.362;-6.240;2022-08-14T03:09:33;8.97;;;4.93;;
64335;SDS011;50672;53.362;-6.240;2022-08-14T03:12:20;7.83;;;5.70;;
64335;SDS011;50672;53.362;-6.240;2022-08-14T03:14:57;8.63;;;5.53;;
64335;SDS011;50672;53.362;-6.240;2022-08-14T03:17:24;8.23;;;5.13;;
64335;SDS011;50672;53.362;-6.240;2022-08-14T03:19:57;7.80;;;5.85;;
64335;SDS011;50672;53.362;-6.240;2022-08-14T03:22:24;7.27;;;5.17;;
64335;SDS011;50672;53.362;-6.240;2022-08-14T03:24:55;8.80;;;5.40;;
64335;SDS011;50672;53.362;-6.240;2022-08-14T03:27:22;7.23;;;5.13;;
64335;SDS011;50672;53.362;-6.240;2022-08-14T03:30:00;9.37;;;7.37;;
64335;SDS011;50672;53.362;-6.240;2022-08-14T03:32:30;8.03;;;6.07;;
64335;SDS011;50672;53.362;-6.240;2022-08-14T03:34:59;12.00;;;5.53;;
64335;SDS011;50672;53.362;-6.240;2022-08-14T03:37:33;9.30;;;6.57;;
64335;SDS011;50672;53.362;-6.240;2022-08-14T03:40:21;7.87;;;5.97;;
64335;SDS011;50672;53.362;-6.240;2022-08-14T03:42:50;7.47;;;6.00;;
64335;SDS011;50672;53.362;-6.240;2022-08-14T03:45:17;10.30;;;6.73;;
64335;SDS011;50672;53.362;-6.240;2022-08-14T03:48:08;9.10;;;7.03;;
64335;SDS011;50672;53.362;-6.240;2022-08-14T03:50:56;9.27;;;6.40;;
64335;SDS011;50672;53.362;-6.240;2022-08-14T03:53:26;12.07;;;6.80;;
64335;SDS011;50672;53.362;-6.240;2022-08-14T03:55:56;7.43;;;6.50;;
64335;SDS011;50672;53.362;-6.240;2022-08-14T03:58:24;9.17;;;6.57;;
64335;SDS011;50672;53.362;-6.240;2022-08-14T04:01:02;11.00;;;6.30;;
64335;SDS011;50672;53.362;-6.240;2022-08-14T04:03:31;7.47;;;5.73;;
64335;SDS011;50672;53.362;-6.240;2022-08-14T04:06:02;7.50;;;5.70;;
64335;SDS011;50672;53.362;-6.240;2022-08-14T04:08:33;10.97;;;6.23;;
64335;SDS011;50672;53.362;-6.240;2022-08-14T04:11:02;8.00;;;5.80;;
64335;SDS011;50672;53.362;-6.240;2022-08-14T04:13:36;7.63;;;5.80;;
64335;SDS011;50672;53.362;-6.240;2022-08-14T04:16:10;7.43;;;6.17;;
64335;SDS011;50672;53.362;-6.240;2022-08-14T04:18:44;10.27;;;6.73;;
64335;SDS011;50672;53.362;-6.240;2022-08-14T04:21:15;9.87;;;6.70;;
64335;SDS011;50672;53.362;-6.240;2022-08-14T04:23:43;8.43;;;6.03;;
64335;SDS011;50672;53.362;-6.240;2022-08-14T04:26:23;8.70;;;6.60;;
64335;SDS011;50672;53.362;-6.240;2022-08-14T04:29:09;11.03;;;6.70;;
64335;SDS011;50672;53.362;-6.240;2022-08-14T04:31:40;7.95;;;6.40;;
64335;SDS011;50672;53.362;-6.240;2022-08-14T04:34:28;10.90;;;6.60;;
64335;SDS011;50672;53.362;-6.240;2022-08-14T04:36:55;9.13;;;6.87;;
64335;SDS011;50672;53.362;-6.240;2022-08-14T04:39:49;7.63;;;6.30;;
64335;SDS011;50672;53.362;-6.240;2022-08-14T04:42:36;10.03;;;7.20;;
64335;SDS011;50672;53.362;-6.240;2022-08-14T04:45:23;9.27;;;6.70;;
64335;SDS011;50672;53.362;-6.240;2022-08-14T04:47:55;9.03;;;7.07;;
64335;SDS011;50672;53.362;-6.240;2022-08-14T04:51:01;8.20;;;6.70;;
64335;SDS011;50672;53.362;-6.240;2022-08-14T04:53:31;13.43;;;7.03;;
64335;SDS011;50672;53.362;-6.240;2022-08-14T04:56:01;12.60;;;7.27;;
64335;SDS011;50672;53.362;-6.240;2022-08-14T04:58:36;8.13;;;6.13;;
64335;SDS011;50672;53.362;-6.240;2022-08-14T05:01:05;11.20;;;6.93;;
64335;SDS011;50672;53.362;-6.240;2022-08-14T05:03:43;7.83;;;7.03;;
64335;SDS011;50672;53.362;-6.240;2022-08-14T05:06:10;9.77;;;6.57;;
64335;SDS011;50672;53.362;-6.240;2022-08-14T05:08:58;8.43;;;7.17;;
64335;SDS011;50672;53.362;-6.240;2022-08-14T05:11:26;10.63;;;6.70;;
64335;SDS011;50672;53.362;-6.240;2022-08-14T05:13:53;10.13;;;7.63;;
64335;SDS011;50672;53.362;-6.240;2022-08-14T05:16:41;8.07;;;6.30;;
64335;SDS011;50672;53.362;-6.240;2022-08-14T05:19:13;9.77;;;6.33;;
64335;SDS011;50672;53.362;-6.240;2022-08-14T05:21:51;9.87;;;6.50;;
64335;SDS011;50672;53.362;-6.240;2022-08-14T05:24:43;7.83;;;6.77;;
64335;SDS011;50672;53.362;-6.240;2022-08-14T05:27:15;9.27;;;6.55;;
64335;SDS011;50672;53.362;-6.240;2022-08-14T05:29:52;8.03;;;6.30;;
64335;SDS011;50672;53.362;-6.240;2022-08-14T05:32:22;10.20;;;6.80;;
64335;SDS011;50672;53.362;-6.240;2022-08-14T05:34:54;9.07;;;6.60;;
64335;SDS011;50672;53.362;-6.240;2022-08-14T05:37:24;8.50;;;6.43;;
64335;SDS011;50672;53.362;-6.240;2022-08-14T05:39:52;8.33;;;6.50;;
64335;SDS011;50672;53.362;-6.240;2022-08-14T05:42:20;7.50;;;6.33;;
64335;SDS011;50672;53.362;-6.240;2022-08-14T05:44:56;7.93;;;6.30;;
64335;SDS011;50672;53.362;-6.240;2022-08-14T05:47:24;9.23;;;6.67;;
64335;SDS011;50672;53.362;-6.240;2022-08-14T05:49:59;7.63;;;6.93;;
64335;SDS011;50672;53.362;-6.240;2022-08-14T05:52:27;7.00;;;5.97;;
64335;SDS011;50672;53.362;-6.240;2022-08-14T05:55:05;7.77;;;6.43;;
64335;SDS011;50672;53.362;-6.240;2022-08-14T05:57:34;7.63;;;5.87;;
64335;SDS011;50672;53.362;-6.240;2022-08-14T06:00:13;8.83;;;6.83;;
64335;SDS011;50672;53.362;-6.240;2022-08-14T06:02:56;7.40;;;6.45;;
64335;SDS011;50672;53.362;-6.240;2022-08-14T06:05:26;8.43;;;5.70;;
64335;SDS011;50672;53.362;-6.240;2022-08-14T06:07:55;7.33;;;5.90;;
64335;SDS011;50672;53.362;-6.240;2022-08-14T06:10:24;6.97;;;5.53;;
64335;SDS011;50672;53.362;-6.240;2022-08-14T06:12:54;5.33;;;4.77;;
64335;SDS011;50672;53.362;-6.240;2022-08-14T06:15:23;6.07;;;5.20;;
64335;SDS011;50672;53.362;-6.240;2022-08-14T06:20:24;6.97;;;5.27;;
64335;SDS011;50672;53.362;-6.240;2022-08-14T06:22:53;6.50;;;5.37;;
64335;SDS011;50672;53.362;-6.240;2022-08-14T06:25:21;6.90;;;5.00;;
64335;SDS011;50672;53.362;-6.240;2022-08-14T06:27:51;7.07;;;4.97;;
64335;SDS011;50672;53.362;-6.240;2022-08-14T06:30:19;6.53;;;5.43;;
64335;SDS011;50672;53.362;-6.240;2022-08-14T06:32:48;7.77;;;5.90;;
64335;SDS011;50672;53.362;-6.240;2022-08-14T06:35:18;7.33;;;6.10;;
64335;SDS011;50672;53.362;-6.240;2022-08-14T06:40:20;7.50;;;5.27;;
64335;SDS011;50672;53.362;-6.240;2022-08-14T06:42:53;6.40;;;5.10;;
64335;SDS011;50672;53.362;-6.240;2022-08-14T06:45:41;6.13;;;4.93;;
64335;SDS011;50672;53.362;-6.240;2022-08-14T06:48:20;7.50;;;4.80;;
64335;SDS011;50672;53.362;-6.240;2022-08-14T06:50:50;6.60;;;4.43;;
64335;SDS011;50672;53.362;-6.240;2022-08-14T06:53:19;6.37;;;4.50;;
64335;SDS011;50672;53.362;-6.240;2022-08-14T06:55:46;8.20;;;4.70;;
64335;SDS011;50672;53.362;-6.240;2022-08-14T06:58:23;8.97;;;4.73;;
64335;SDS011;50672;53.362;-6.240;2022-08-14T07:00:54;6.90;;;4.67;;
64335;SDS011;50672;53.362;-6.240;2022-08-14T07:03:40;5.70;;;4.33;;
64335;SDS011;50672;53.362;-6.240;2022-08-14T07:06:27;6.20;;;4.50;;
64335;SDS011;50672;53.362;-6.240;2022-08-14T07:09:12;7.07;;;4.60;;
64335;SDS011;50672;53.362;-6.240;2022-08-14T07:11:47;7.53;;;4.40;;
64335;SDS011;50672;53.362;-6.240;2022-08-14T07:14:15;7.90;;;4.27;;
64335;SDS011;50672;53.362;-6.240;2022-08-14T07:16:42;6.57;;;4.40;;
64335;SDS011;50672;53.362;-6.240;2022-08-14T07:19:09;8.57;;;4.47;;
64335;SDS011;50672;53.362;-6.240;2022-08-14T07:21:36;6.47;;;4.83;;
64335;SDS011;50672;53.362;-6.240;2022-08-14T07:24:05;4.93;;;4.03;;
64335;SDS011;50672;53.362;-6.240;2022-08-14T07:26:47;7.47;;;4.30;;
64335;SDS011;50672;53.362;-6.240;2022-08-14T07:29:14;7.13;;;5.00;;
64335;SDS011;50672;53.362;-6.240;2022-08-14T07:31:43;9.70;;;4.60;;
64335;SDS011;50672;53.362;-6.240;2022-08-14T07:34:11;6.47;;;4.07;;
64335;SDS011;50672;53.362;-6.240;2022-08-14T07:36:58;8.57;;;3.97;;
64335;SDS011;50672;53.362;-6.240;2022-08-14T07:39:26;5.03;;;4.30;;
64335;SDS011;50672;53.362;-6.240;2022-08-14T07:41:53;7.47;;;5.33;;
64335;SDS011;50672;53.362;-6.240;2022-08-14T07:44:20;6.90;;;4.57;;
64335;SDS011;50672;53.362;-6.240;2022-08-14T07:47:00;10.87;;;4.93;;
64335;SDS011;50672;53.362;-6.240;2022-08-14T07:49:29;5.47;;;4.30;;
64335;SDS011;50672;53.362;-6.240;2022-08-14T07:52:03;7.70;;;4.00;;
64335;SDS011;50672;53.362;-6.240;2022-08-14T07:54:33;6.23;;;4.60;;
64335;SDS011;50672;53.362;-6.240;2022-08-14T07:57:00;9.07;;;4.70;;
64335;SDS011;50672;53.362;-6.240;2022-08-14T07:59:38;5.77;;;4.27;;
64335;SDS011;50672;53.362;-6.240;2022-08-14T08:02:10;6.30;;;4.32;;
64335;SDS011;50672;53.362;-6.240;2022-08-14T08:04:46;5.97;;;3.63;;
64335;SDS011;50672;53.362;-6.240;2022-08-14T08:07:14;6.80;;;4.57;;
64335;SDS011;50672;53.362;-6.240;2022-08-14T08:09:43;4.97;;;3.93;;
64335;SDS011;50672;53.362;-6.240;2022-08-14T08:12:19;8.73;;;4.30;;
64335;SDS011;50672;53.362;-6.240;2022-08-14T08:14:55;5.87;;;4.83;;
64335;SDS011;50672;53.362;-6.240;2022-08-14T08:17:33;11.03;;;4.73;;
64335;SDS011;50672;53.362;-6.240;2022-08-14T08:20:11;8.00;;;4.27;;
64335;SDS011;50672;53.362;-6.240;2022-08-14T08:22:45;8.83;;;4.60;;
64335;SDS011;50672;53.362;-6.240;2022-08-14T08:25:22;8.43;;;4.50;;
64335;SDS011;50672;53.362;-6.240;2022-08-14T08:27:56;8.20;;;4.03;;
64335;SDS011;50672;53.362;-6.240;2022-08-14T08:30:25;7.10;;;3.90;;
64335;SDS011;50672;53.362;-6.240;2022-08-14T08:32:54;6.57;;;4.30;;
64335;SDS011;50672;53.362;-6.240;2022-08-14T08:35:23;4.80;;;4.30;;
64335;SDS011;50672;53.362;-6.240;2022-08-14T08:38:12;8.50;;;4.23;;
64335;SDS011;50672;53.362;-6.240;2022-08-14T08:41:03;5.97;;;4.67;;
64335;SDS011;50672;53.362;-6.240;2022-08-14T08:43:36;7.07;;;4.33;;
64335;SDS011;50672;53.362;-6.240;2022-08-14T08:46:07;6.73;;;3.90;;
64335;SDS011;50672;53.362;-6.240;2022-08-14T08:48:53;5.50;;;4.20;;
64335;SDS011;50672;53.362;-6.240;2022-08-14T08:54:11;6.23;;;4.63;;
64335;SDS011;50672;53.362;-6.240;2022-08-14T08:56:51;5.73;;;3.70;;
64335;SDS011;50672;53.362;-6.240;2022-08-14T08:59:25;5.10;;;4.00;;
64335;SDS011;50672;53.362;-6.240;2022-08-14T09:02:00;8.37;;;4.17;;
64335;SDS011;50672;53.362;-6.240;2022-08-14T09:04:36;5.87;;;3.70;;
64335;SDS011;50672;53.362;-6.240;2022-08-14T09:07:18;5.00;;;3.60;;
64335;SDS011;50672;53.362;-6.240;2022-08-14T09:09:52;8.50;;;4.70;;
64335;SDS011;50672;53.362;-6.240;2022-08-14T09:12:25;6.27;;;3.67;;
64335;SDS011;50672;53.362;-6.240;2022-08-14T09:14:59;6.23;;;3.97;;
64335;SDS011;50672;53.362;-6.240;2022-08-14T09:17:27;6.57;;;4.13;;
64335;SDS011;50672;53.362;-6.240;2022-08-14T09:19:55;7.88;;;4.10;;
64335;SDS011;50672;53.362;-6.240;2022-08-14T09:22:29;5.80;;;3.87;;
64335;SDS011;50672;53.362;-6.240;2022-08-14T09:25:02;7.05;;;4.20;;
64335;SDS011;50672;53.362;-6.240;2022-08-14T09:27:33;6.72;;;3.88;;
64335;SDS011;50672;53.362;-6.240;2022-08-14T09:30:03;6.97;;;3.78;;
64335;SDS011;50672;53.362;-6.240;2022-08-14T09:32:58;5.97;;;4.33;;
64335;SDS011;50672;53.362;-6.240;2022-08-14T09:38:27;5.43;;;3.60;;
64335;SDS011;50672;53.362;-6.240;2022-08-14T09:43:42;5.00;;;3.67;;
64335;SDS011;50672;53.362;-6.240;2022-08-14T09:46:17;6.55;;;4.28;;
64335;SDS011;50672;53.362;-6.240;2022-08-14T09:48:57;8.38;;;3.70;;
64335;SDS011;50672;53.362;-6.240;2022-08-14T09:51:29;4.57;;;3.75;;
64335;SDS011;50672;53.362;-6.240;2022-08-14T09:56:48;6.53;;;3.80;;
64335;SDS011;50672;53.362;-6.240;2022-08-14T09:59:22;4.10;;;3.60;;
64335;SDS011;50672;53.362;-6.240;2022-08-14T10:01:53;5.88;;;3.92;;
64335;SDS011;50672;53.362;-6.240;2022-08-14T10:04:25;6.85;;;3.85;;
64335;SDS011;50672;53.362;-6.240;2022-08-14T10:07:05;5.45;;;3.55;;
64335;SDS011;50672;53.362;-6.240;2022-08-14T10:09:44;10.48;;;3.58;;
64335;SDS011;50672;53.362;-6.240;2022-08-14T10:12:38;8.45;;;4.18;;
64335;SDS011;50672;53.362;-6.240;2022-08-14T10:15:20;7.60;;;3.75;;
64335;SDS011;50672;53.362;-6.240;2022-08-14T10:20:58;5.03;;;4.18;;
64335;SDS011;50672;53.362;-6.240;2022-08-14T10:23:27;4.07;;;3.67;;
64335;SDS011;50672;53.362;-6.240;2022-08-14T10:26:05;6.93;;;4.38;;
64335;SDS011;50672;53.362;-6.240;2022-08-14T10:28:40;7.05;;;3.67;;
64335;SDS011;50672;53.362;-6.240;2022-08-14T10:31:29;6.72;;;3.50;;
64335;SDS011;50672;53.362;-6.240;2022-08-14T10:34:11;8.13;;;3.90;;
64335;SDS011;50672;53.362;-6.240;2022-08-14T10:36:42;8.43;;;3.92;;
64335;SDS011;50672;53.362;-6.240;2022-08-14T10:41:46;7.72;;;3.60;;
64335;SDS011;50672;53.362;-6.240;2022-08-14T10:44:21;4.97;;;3.58;;
64335;SDS011;50672;53.362;-6.240;2022-08-14T10:46:55;6.60;;;3.92;;
64335;SDS011;50672;53.362;-6.240;2022-08-14T10:49:56;4.85;;;3.30;;
64335;SDS011;50672;53.362;-6.240;2022-08-14T10:52:26;5.38;;;3.70;;
64335;SDS011;50672;53.362;-6.240;2022-08-14T10:57:50;6.75;;;3.50;;
64335;SDS011;50672;53.362;-6.240;2022-08-14T11:00:20;5.40;;;3.92;;
64335;SDS011;50672;53.362;-6.240;2022-08-14T11:05:37;7.53;;;3.83;;
64335;SDS011;50672;53.362;-6.240;2022-08-14T11:08:10;5.53;;;3.60;;
64335;SDS011;50672;53.362;-6.240;2022-08-14T11:13:19;4.97;;;3.85;;
64335;SDS011;50672;53.362;-6.240;2022-08-14T11:15:54;5.10;;;3.67;;
64335;SDS011;50672;53.362;-6.240;2022-08-14T11:18:25;6.78;;;4.57;;
64335;SDS011;50672;53.362;-6.240;2022-08-14T11:21:02;6.88;;;4.20;;
64335;SDS011;50672;53.362;-6.240;2022-08-14T11:23:34;6.72;;;4.53;;
64335;SDS011;50672;53.362;-6.240;2022-08-14T11:26:09;7.25;;;3.83;;
64335;SDS011;50672;53.362;-6.240;2022-08-14T11:29:52;7.65;;;4.28;;
64335;SDS011;50672;53.362;-6.240;2022-08-14T11:33:26;5.53;;;3.67;;
64335;SDS011;50672;53.362;-6.240;2022-08-14T11:37:06;5.13;;;3.80;;
64335;SDS011;50672;53.362;-6.240;2022-08-14T11:40:27;8.75;;;4.20;;
64335;SDS011;50672;53.362;-6.240;2022-08-14T11:43:52;4.72;;;3.72;;
64335;SDS011;50672;53.362;-6.240;2022-08-14T11:47:46;4.75;;;3.67;;
64335;SDS011;50672;53.362;-6.240;2022-08-14T11:51:31;5.50;;;3.90;;
64335;SDS011;50672;53.362;-6.240;2022-08-14T11:55:09;4.68;;;3.35;;
64335;SDS011;50672;53.362;-6.240;2022-08-14T11:58:37;6.50;;;4.13;;
64335;SDS011;50672;53.362;-6.240;2022-08-14T12:05:34;4.95;;;3.28;;
64335;SDS011;50672;53.362;-6.240;2022-08-14T12:09:05;10.75;;;3.58;;
64335;SDS011;50672;53.362;-6.240;2022-08-14T12:12:52;5.10;;;3.35;;
64335;SDS011;50672;53.362;-6.240;2022-08-14T12:16:21;5.88;;;3.70;;
64335;SDS011;50672;53.362;-6.240;2022-08-14T12:19:50;6.75;;;3.95;;
64335;SDS011;50672;53.362;-6.240;2022-08-14T12:22:41;5.93;;;3.45;;
64335;SDS011;50672;53.362;-6.240;2022-08-14T12:25:11;5.82;;;4.22;;
64335;SDS011;50672;53.362;-6.240;2022-08-14T12:27:46;5.55;;;3.85;;
64335;SDS011;50672;53.362;-6.240;2022-08-14T12:30:26;3.97;;;3.42;;
64335;SDS011;50672;53.362;-6.240;2022-08-14T12:35:58;10.10;;;4.38;;
64335;SDS011;50672;53.362;-6.240;2022-08-14T12:38:39;11.25;;;3.97;;
64335;SDS011;50672;53.362;-6.240;2022-08-14T12:41:11;7.55;;;3.39;;
64335;SDS011;50672;53.362;-6.240;2022-08-14T12:49:46;5.93;;;4.10;;
64335;SDS011;50672;53.362;-6.240;2022-08-14T12:52:34;6.45;;;4.13;;
64335;SDS011;50672;53.362;-6.240;2022-08-14T12:55:28;6.15;;;4.18;;
64335;SDS011;50672;53.362;-6.240;2022-08-14T12:58:21;7.07;;;4.22;;
64335;SDS011;50672;53.362;-6.240;2022-08-14T13:01:29;4.97;;;3.72;;
64335;SDS011;50672;53.362;-6.240;2022-08-14T13:04:19;9.68;;;4.00;;
64335;SDS011;50672;53.362;-6.240;2022-08-14T13:06:49;5.13;;;4.00;;
64335;SDS011;50672;53.362;-6.240;2022-08-14T13:10:40;8.32;;;4.45;;
64335;SDS011;50672;53.362;-6.240;2022-08-14T13:14:13;6.68;;;3.97;;
64335;SDS011;50672;53.362;-6.240;2022-08-14T13:17:41;6.47;;;4.38;;
64335;SDS011;50672;53.362;-6.240;2022-08-14T13:21:12;9.60;;;4.40;;
64335;SDS011;50672;53.362;-6.240;2022-08-14T13:24:57;8.13;;;4.07;;
64335;SDS011;50672;53.362;-6.240;2022-08-14T13:28:41;5.80;;;4.20;;
64335;SDS011;50672;53.362;-6.240;2022-08-14T13:32:12;6.30;;;4.25;;
64335;SDS011;50672;53.362;-6.240;2022-08-14T13:35:42;4.53;;;4.13;;
64335;SDS011;50672;53.362;-6.240;2022-08-14T13:39:24;5.40;;;3.83;;
64335;SDS011;50672;53.362;-6.240;2022-08-14T13:42:55;8.00;;;4.40;;
64335;SDS011;50672;53.362;-6.240;2022-08-14T13:46:25;6.30;;;5.03;;
64335;SDS011;50672;53.362;-6.240;2022-08-14T13:49:52;5.68;;;4.13;;
64335;SDS011;50672;53.362;-6.240;2022-08-14T13:53:21;5.93;;;4.28;;
64335;SDS011;50672;53.362;-6.240;2022-08-14T13:57:01;6.38;;;4.88;;
64335;SDS011;50672;53.362;-6.240;2022-08-14T14:00:31;5.07;;;4.47;;
64335;SDS011;50672;53.362;-6.240;2022-08-14T14:04:03;6.25;;;4.38;;
64335;SDS011;50672;53.362;-6.240;2022-08-14T14:07:54;6.40;;;3.90;;
64335;SDS011;50672;53.362;-6.240;2022-08-14T14:11:25;8.20;;;4.60;;
64335;SDS011;50672;53.362;-6.240;2022-08-14T14:15:06;7.78;;;4.63;;
64335;SDS011;50672;53.362;-6.240;2022-08-14T14:18:33;7.07;;;5.20;;
64335;SDS011;50672;53.362;-6.240;2022-08-14T14:22:00;6.97;;;4.57;;
64335;SDS011;50672;53.362;-6.240;2022-08-14T14:25:52;7.60;;;4.30;;
64335;SDS011;50672;53.362;-6.240;2022-08-14T14:29:19;5.80;;;4.18;;
64335;SDS011;50672;53.362;-6.240;2022-08-14T14:33:06;4.90;;;4.18;;
64335;SDS011;50672;53.362;-6.240;2022-08-14T18:56:14;6.70;;;3.67;;
64335;SDS011;50672;53.362;-6.240;2022-08-14T18:58:48;7.28;;;3.78;;
64335;SDS011;50672;53.362;-6.240;2022-08-14T19:01:27;6.65;;;4.32;;
64335;SDS011;50672;53.362;-6.240;2022-08-14T19:03:56;5.85;;;3.30;;
64335;SDS011;50672;53.362;-6.240;2022-08-14T19:06:38;6.15;;;3.40;;
64335;SDS011;50672;53.362;-6.240;2022-08-14T19:09:25;4.63;;;3.25;;
64335;SDS011;50672;53.362;-6.240;2022-08-14T19:15:23;4.82;;;3.40;;
64335;SDS011;50672;53.362;-6.240;2022-08-14T19:17:58;6.95;;;3.50;;
64335;SDS011;50672;53.362;-6.240;2022-08-14T19:20:45;5.03;;;3.08;;
64335;SDS011;50672;53.362;-6.240;2022-08-14T19:23:19;4.28;;;3.58;;
64335;SDS011;50672;53.362;-6.240;2022-08-14T19:26:42;9.88;;;3.75;;
64335;SDS011;50672;53.362;-6.240;2022-08-14T19:29:21;5.22;;;3.33;;
64335;SDS011;50672;53.362;-6.240;2022-08-14T19:32:04;3.70;;;3.28;;
64335;SDS011;50672;53.362;-6.240;2022-08-14T19:34:53;8.27;;;3.95;;
64335;SDS011;50672;53.362;-6.240;2022-08-14T19:37:42;8.75;;;3.80;;
64335;SDS011;50672;53.362;-6.240;2022-08-14T19:40:33;8.20;;;3.55;;
64335;SDS011;50672;53.362;-6.240;2022-08-14T19:43:05;5.28;;;3.25;;
64335;SDS011;50672;53.362;-6.240;2022-08-14T19:45:36;4.03;;;3.50;;
64335;SDS011;50672;53.362;-6.240;2022-08-14T19:48:11;7.53;;;3.70;;
64335;SDS011;50672;53.362;-6.240;2022-08-14T19:50:39;5.15;;;4.13;;
64335;SDS011;50672;53.362;-6.240;2022-08-14T19:53:10;9.07;;;4.45;;
64335;SDS011;50672;53.362;-6.240;2022-08-14T19:55:48;3.88;;;3.35;;
64335;SDS011;50672;53.362;-6.240;2022-08-14T19:58:40;6.32;;;3.67;;
64335;SDS011;50672;53.362;-6.240;2022-08-14T20:01:27;5.10;;;3.83;;
64335;SDS011;50672;53.362;-6.240;2022-08-14T20:04:09;5.53;;;3.80;;
64335;SDS011;50672;53.362;-6.240;2022-08-14T20:07:04;6.85;;;3.33;;
64335;SDS011;50672;53.362;-6.240;2022-08-14T20:10:51;5.03;;;3.63;;
64335;SDS011;50672;53.362;-6.240;2022-08-14T20:14:34;3.63;;;3.33;;
64335;SDS011;50672;53.362;-6.240;2022-08-14T20:18:12;3.97;;;3.17;;
64335;SDS011;50672;53.362;-6.240;2022-08-14T20:21:23;3.90;;;3.50;;
64335;SDS011;50672;53.362;-6.240;2022-08-14T20:24:12;6.33;;;3.87;;
64335;SDS011;50672;53.362;-6.240;2022-08-14T20:30:11;3.63;;;3.33;;
64335;SDS011;50672;53.362;-6.240;2022-08-14T20:33:37;4.85;;;3.35;;
64335;SDS011;50672;53.362;-6.240;2022-08-14T20:37:05;4.97;;;3.00;;
64335;SDS011;50672;53.362;-6.240;2022-08-14T20:40:48;4.07;;;3.40;;
64335;SDS011;50672;53.362;-6.240;2022-08-14T20:43:34;4.13;;;3.27;;
64335;SDS011;50672;53.362;-6.240;2022-08-14T20:51:36;5.90;;;3.50;;
64335;SDS011;50672;53.362;-6.240;2022-08-14T20:54:28;6.37;;;3.47;;
64335;SDS011;50672;53.362;-6.240;2022-08-14T20:57:10;4.97;;;3.20;;
64335;SDS011;50672;53.362;-6.240;2022-08-14T20:59:44;4.78;;;3.42;;
64335;SDS011;50672;53.362;-6.240;2022-08-14T21:05:11;4.23;;;3.33;;
64335;SDS011;50672;53.362;-6.240;2022-08-14T21:07:42;5.10;;;3.53;;
64335;SDS011;50672;53.362;-6.240;2022-08-14T21:10:27;5.33;;;3.90;;
64335;SDS011;50672;53.362;-6.240;2022-08-14T21:13:01;7.27;;;3.73;;
64335;SDS011;50672;53.362;-6.240;2022-08-14T21:15:48;4.20;;;3.57;;
64335;SDS011;50672;53.362;-6.240;2022-08-14T21:18:27;5.00;;;3.33;;
64335;SDS011;50672;53.362;-6.240;2022-08-14T21:20:57;5.80;;;3.57;;
64335;SDS011;50672;53.362;-6.240;2022-08-14T21:23:33;7.27;;;3.47;;
64335;SDS011;50672;53.362;-6.240;2022-08-14T21:26:21;4.73;;;4.07;;
64335;SDS011;50672;53.362;-6.240;2022-08-14T21:29:13;4.60;;;3.80;;